Melbourne Beach, Florida
Current Conditions -  °F | °C
As of 7:53 AM on Thursday 30 Oct 2014 (Local Time) from KMLB Reporting Station
Clear Clear  
Wind Chill: 66°   Ceiling: Unl
Heat Index: 66°   Visibility: 10mi
Dew Point: 63°   Wind: 3mph
Humidity: 90%   Direction: 270°W
Pressure: 29.97"   Gusts: NA
Location:  28.07°N, 80.56°W
Report Text: KMLB 301153Z 27003KT 10SM CLR 19/17 A2997 RMK AO2 SLP149 T01890172 10189 20178 53005
Loading
Personal Weather Stations






























Interactive Weather Map New forecast layout! Learn more

10-Day Weather Forecast

Advertisements
Track Severe Weather on mobile